sensor_id;sensor_type;location;lat;lon;timestamp;P1;durP1;ratioP1;P2;durP2;ratioP2
20619;SDS011;10469;42.720;23.252;2023-04-03T00:01:13;1.65;;;1.50;;
20619;SDS011;10469;42.720;23.252;2023-04-03T00:03:39;1.70;;;1.40;;
20619;SDS011;10469;42.720;23.252;2023-04-03T00:06:09;3.75;;;1.70;;
20619;SDS011;10469;42.720;23.252;2023-04-03T00:08:37;2.05;;;1.70;;
20619;SDS011;10469;42.720;23.252;2023-04-03T00:11:03;2.08;;;1.60;;
20619;SDS011;10469;42.720;23.252;2023-04-03T00:13:31;1.60;;;1.50;;
20619;SDS011;10469;42.720;23.252;2023-04-03T00:15:58;3.38;;;1.95;;
20619;SDS011;10469;42.720;23.252;2023-04-03T00:18:24;1.90;;;1.58;;
20619;SDS011;10469;42.720;23.252;2023-04-03T00:20:50;1.70;;;1.60;;
20619;SDS011;10469;42.720;23.252;2023-04-03T00:23:15;4.32;;;1.90;;
20619;SDS011;10469;42.720;23.252;2023-04-03T00:25:41;2.10;;;1.80;;
20619;SDS011;10469;42.720;23.252;2023-04-03T00:28:09;1.65;;;1.55;;
20619;SDS011;10469;42.720;23.252;2023-04-03T00:30:35;1.92;;;1.75;;
20619;SDS011;10469;42.720;23.252;2023-04-03T00:33:01;12.00;;;3.35;;
20619;SDS011;10469;42.720;23.252;2023-04-03T00:35:26;8.57;;;4.60;;
20619;SDS011;10469;42.720;23.252;2023-04-03T00:37:53;4.43;;;3.47;;
20619;SDS011;10469;42.720;23.252;2023-04-03T00:40:21;8.07;;;4.45;;
20619;SDS011;10469;42.720;23.252;2023-04-03T00:42:51;11.07;;;4.18;;
20619;SDS011;10469;42.720;23.252;2023-04-03T00:45:23;5.75;;;3.28;;
20619;SDS011;10469;42.720;23.252;2023-04-03T00:47:49;6.97;;;4.60;;
20619;SDS011;10469;42.720;23.252;2023-04-03T00:50:16;8.93;;;4.63;;
20619;SDS011;10469;42.720;23.252;2023-04-03T00:52:42;9.77;;;4.80;;
20619;SDS011;10469;42.720;23.252;2023-04-03T00:55:14;9.10;;;4.80;;
20619;SDS011;10469;42.720;23.252;2023-04-03T00:57:48;8.70;;;4.50;;
20619;SDS011;10469;42.720;23.252;2023-04-03T01:00:18;7.55;;;4.97;;
20619;SDS011;10469;42.720;23.252;2023-04-03T01:02:47;7.05;;;4.25;;
20619;SDS011;10469;42.720;23.252;2023-04-03T01:05:17;6.20;;;3.90;;
20619;SDS011;10469;42.720;23.252;2023-04-03T01:07:47;4.63;;;3.60;;
20619;SDS011;10469;42.720;23.252;2023-04-03T01:10:15;9.45;;;3.83;;
20619;SDS011;10469;42.720;23.252;2023-04-03T01:12:45;7.70;;;3.15;;
20619;SDS011;10469;42.720;23.252;2023-04-03T01:15:16;6.47;;;3.25;;
20619;SDS011;10469;42.720;23.252;2023-04-03T01:17:51;6.53;;;2.97;;
20619;SDS011;10469;42.720;23.252;2023-04-03T01:25:55;3.55;;;2.25;;
20619;SDS011;10469;42.720;23.252;2023-04-03T01:28:23;2.90;;;2.22;;
20619;SDS011;10469;42.720;23.252;2023-04-03T01:31:10;2.00;;;1.80;;
20619;SDS011;10469;42.720;23.252;2023-04-03T01:33:45;5.03;;;2.40;;
20619;SDS011;10469;42.720;23.252;2023-04-03T01:36:17;3.50;;;2.38;;
20619;SDS011;10469;42.720;23.252;2023-04-03T01:38:45;3.03;;;2.42;;
20619;SDS011;10469;42.720;23.252;2023-04-03T01:41:12;3.05;;;2.20;;
20619;SDS011;10469;42.720;23.252;2023-04-03T01:43:38;5.18;;;2.55;;
20619;SDS011;10469;42.720;23.252;2023-04-03T01:46:03;8.30;;;2.53;;
20619;SDS011;10469;42.720;23.252;2023-04-03T01:48:29;2.88;;;2.47;;
20619;SDS011;10469;42.720;23.252;2023-04-03T01:51:01;3.63;;;2.42;;
20619;SDS011;10469;42.720;23.252;2023-04-03T01:53:27;2.78;;;2.20;;
20619;SDS011;10469;42.720;23.252;2023-04-03T01:55:53;2.63;;;2.15;;
20619;SDS011;10469;42.720;23.252;2023-04-03T01:58:19;5.65;;;1.85;;
20619;SDS011;10469;42.720;23.252;2023-04-03T02:00:44;2.10;;;1.95;;
20619;SDS011;10469;42.720;23.252;2023-04-03T02:03:10;4.07;;;2.30;;
20619;SDS011;10469;42.720;23.252;2023-04-03T02:05:37;2.22;;;2.03;;
20619;SDS011;10469;42.720;23.252;2023-04-03T02:08:03;2.35;;;2.15;;
20619;SDS011;10469;42.720;23.252;2023-04-03T02:10:29;3.42;;;1.98;;
20619;SDS011;10469;42.720;23.252;2023-04-03T02:12:55;2.58;;;2.05;;
20619;SDS011;10469;42.720;23.252;2023-04-03T02:15:21;2.00;;;1.80;;
20619;SDS011;10469;42.720;23.252;2023-04-03T02:17:46;4.00;;;2.10;;
20619;SDS011;10469;42.720;23.252;2023-04-03T02:20:12;2.10;;;1.95;;
20619;SDS011;10469;42.720;23.252;2023-04-03T02:22:38;5.88;;;2.38;;
20619;SDS011;10469;42.720;23.252;2023-04-03T02:25:03;3.00;;;2.30;;
20619;SDS011;10469;42.720;23.252;2023-04-03T02:27:30;4.38;;;2.78;;
20619;SDS011;10469;42.720;23.252;2023-04-03T02:29:56;3.42;;;2.78;;
20619;SDS011;10469;42.720;23.252;2023-04-03T02:32:22;3.10;;;2.33;;
20619;SDS011;10469;42.720;23.252;2023-04-03T02:34:48;2.70;;;2.28;;
20619;SDS011;10469;42.720;23.252;2023-04-03T02:37:14;6.10;;;2.40;;
20619;SDS011;10469;42.720;23.252;2023-04-03T02:39:41;6.65;;;2.58;;
20619;SDS011;10469;42.720;23.252;2023-04-03T02:42:07;4.65;;;2.65;;
20619;SDS011;10469;42.720;23.252;2023-04-03T02:44:33;4.07;;;2.65;;
20619;SDS011;10469;42.720;23.252;2023-04-03T02:46:59;3.00;;;2.20;;
20619;SDS011;10469;42.720;23.252;2023-04-03T02:49:25;9.05;;;2.40;;
20619;SDS011;10469;42.720;23.252;2023-04-03T02:51:52;4.65;;;2.72;;
20619;SDS011;10469;42.720;23.252;2023-04-03T02:54:18;3.05;;;2.65;;
20619;SDS011;10469;42.720;23.252;2023-04-03T02:56:43;5.70;;;3.47;;
20619;SDS011;10469;42.720;23.252;2023-04-03T02:59:11;6.18;;;2.70;;
20619;SDS011;10469;42.720;23.252;2023-04-03T03:01:37;4.10;;;2.92;;
20619;SDS011;10469;42.720;23.252;2023-04-03T03:04:37;7.65;;;3.97;;
20619;SDS011;10469;42.720;23.252;2023-04-03T03:07:04;3.42;;;2.80;;
20619;SDS011;10469;42.720;23.252;2023-04-03T03:09:30;3.83;;;2.45;;
20619;SDS011;10469;42.720;23.252;2023-04-03T03:11:59;2.90;;;2.30;;
20619;SDS011;10469;42.720;23.252;2023-04-03T03:14:27;2.70;;;2.40;;
20619;SDS011;10469;42.720;23.252;2023-04-03T03:16:56;4.40;;;2.80;;
20619;SDS011;10469;42.720;23.252;2023-04-03T03:19:22;8.55;;;3.45;;
20619;SDS011;10469;42.720;23.252;2023-04-03T03:21:47;7.40;;;3.22;;
20619;SDS011;10469;42.720;23.252;2023-04-03T03:24:13;4.95;;;3.30;;
20619;SDS011;10469;42.720;23.252;2023-04-03T03:26:40;3.83;;;3.30;;
20619;SDS011;10469;42.720;23.252;2023-04-03T03:29:06;5.45;;;2.97;;
20619;SDS011;10469;42.720;23.252;2023-04-03T03:31:34;7.47;;;3.28;;
20619;SDS011;10469;42.720;23.252;2023-04-03T03:34:00;13.77;;;4.65;;
20619;SDS011;10469;42.720;23.252;2023-04-03T03:36:26;10.25;;;4.30;;
20619;SDS011;10469;42.720;23.252;2023-04-03T03:38:52;9.98;;;4.20;;
20619;SDS011;10469;42.720;23.252;2023-04-03T03:41:19;9.40;;;4.55;;
20619;SDS011;10469;42.720;23.252;2023-04-03T03:43:45;11.43;;;4.22;;
20619;SDS011;10469;42.720;23.252;2023-04-03T03:46:11;18.27;;;9.90;;
20619;SDS011;10469;42.720;23.252;2023-04-03T03:48:37;16.02;;;6.05;;
20619;SDS011;10469;42.720;23.252;2023-04-03T03:51:04;10.70;;;6.60;;
20619;SDS011;10469;42.720;23.252;2023-04-03T03:53:30;11.18;;;7.15;;
20619;SDS011;10469;42.720;23.252;2023-04-03T03:55:57;13.93;;;6.10;;
20619;SDS011;10469;42.720;23.252;2023-04-03T03:58:23;12.15;;;5.75;;
20619;SDS011;10469;42.720;23.252;2023-04-03T04:00:49;7.60;;;5.18;;
20619;SDS011;10469;42.720;23.252;2023-04-03T04:03:15;13.23;;;5.70;;
20619;SDS011;10469;42.720;23.252;2023-04-03T04:05:41;12.93;;;6.70;;
20619;SDS011;10469;42.720;23.252;2023-04-03T04:08:07;10.35;;;5.90;;
20619;SDS011;10469;42.720;23.252;2023-04-03T04:10:33;10.60;;;6.53;;
20619;SDS011;10469;42.720;23.252;2023-04-03T04:13:01;11.82;;;5.43;;
20619;SDS011;10469;42.720;23.252;2023-04-03T04:15:27;7.68;;;4.35;;
20619;SDS011;10469;42.720;23.252;2023-04-03T04:17:54;9.98;;;4.60;;
20619;SDS011;10469;42.720;23.252;2023-04-03T04:20:19;6.97;;;4.85;;
20619;SDS011;10469;42.720;23.252;2023-04-03T04:22:46;10.95;;;4.63;;
20619;SDS011;10469;42.720;23.252;2023-04-03T04:25:11;7.45;;;4.90;;
20619;SDS011;10469;42.720;23.252;2023-04-03T04:27:37;9.82;;;5.30;;
20619;SDS011;10469;42.720;23.252;2023-04-03T04:30:04;13.07;;;4.80;;
20619;SDS011;10469;42.720;23.252;2023-04-03T04:32:30;9.13;;;6.35;;
20619;SDS011;10469;42.720;23.252;2023-04-03T04:34:56;14.15;;;5.88;;
20619;SDS011;10469;42.720;23.252;2023-04-03T04:37:22;15.02;;;5.20;;
20619;SDS011;10469;42.720;23.252;2023-04-03T04:39:48;16.38;;;6.28;;
20619;SDS011;10469;42.720;23.252;2023-04-03T04:42:13;10.85;;;5.05;;
20619;SDS011;10469;42.720;23.252;2023-04-03T04:44:40;11.35;;;5.45;;
20619;SDS011;10469;42.720;23.252;2023-04-03T04:47:05;9.73;;;5.05;;
20619;SDS011;10469;42.720;23.252;2023-04-03T04:49:31;14.85;;;7.50;;
20619;SDS011;10469;42.720;23.252;2023-04-03T04:51:57;15.88;;;6.30;;
20619;SDS011;10469;42.720;23.252;2023-04-03T04:54:22;17.60;;;6.68;;
20619;SDS011;10469;42.720;23.252;2023-04-03T04:56:49;12.70;;;6.63;;
20619;SDS011;10469;42.720;23.252;2023-04-03T04:59:14;10.02;;;5.57;;
20619;SDS011;10469;42.720;23.252;2023-04-03T05:01:40;11.55;;;5.97;;
20619;SDS011;10469;42.720;23.252;2023-04-03T05:04:06;14.07;;;6.38;;
20619;SDS011;10469;42.720;23.252;2023-04-03T05:06:32;14.57;;;7.13;;
20619;SDS011;10469;42.720;23.252;2023-04-03T05:08:58;21.13;;;8.32;;
20619;SDS011;10469;42.720;23.252;2023-04-03T05:11:24;16.92;;;7.80;;
20619;SDS011;10469;42.720;23.252;2023-04-03T05:13:50;18.13;;;7.97;;
20619;SDS011;10469;42.720;23.252;2023-04-03T05:16:16;11.93;;;6.80;;
20619;SDS011;10469;42.720;23.252;2023-04-03T05:18:42;9.95;;;6.03;;
20619;SDS011;10469;42.720;23.252;2023-04-03T05:21:08;10.15;;;4.85;;
20619;SDS011;10469;42.720;23.252;2023-04-03T05:23:36;15.60;;;5.65;;
20619;SDS011;10469;42.720;23.252;2023-04-03T05:26:01;9.82;;;5.57;;
20619;SDS011;10469;42.720;23.252;2023-04-03T05:28:27;17.75;;;8.07;;
20619;SDS011;10469;42.720;23.252;2023-04-03T05:30:56;21.30;;;8.95;;
20619;SDS011;10469;42.720;23.252;2023-04-03T05:33:23;27.73;;;10.32;;
20619;SDS011;10469;42.720;23.252;2023-04-03T05:35:50;15.27;;;8.25;;
20619;SDS011;10469;42.720;23.252;2023-04-03T05:38:15;13.15;;;7.70;;
20619;SDS011;10469;42.720;23.252;2023-04-03T05:40:41;17.88;;;7.85;;
20619;SDS011;10469;42.720;23.252;2023-04-03T05:43:08;13.40;;;7.05;;
20619;SDS011;10469;42.720;23.252;2023-04-03T05:45:34;15.85;;;7.32;;
20619;SDS011;10469;42.720;23.252;2023-04-03T05:48:00;18.00;;;6.38;;
20619;SDS011;10469;42.720;23.252;2023-04-03T05:50:26;15.88;;;6.65;;
20619;SDS011;10469;42.720;23.252;2023-04-03T05:52:52;10.05;;;6.50;;
20619;SDS011;10469;42.720;23.252;2023-04-03T05:55:20;10.05;;;5.90;;
20619;SDS011;10469;42.720;23.252;2023-04-03T05:57:46;25.40;;;5.90;;
20619;SDS011;10469;42.720;23.252;2023-04-03T06:00:12;13.30;;;6.35;;
20619;SDS011;10469;42.720;23.252;2023-04-03T06:02:40;19.33;;;10.95;;
20619;SDS011;10469;42.720;23.252;2023-04-03T06:05:07;9.45;;;4.50;;
20619;SDS011;10469;42.720;23.252;2023-04-03T06:07:34;8.15;;;4.03;;
20619;SDS011;10469;42.720;23.252;2023-04-03T06:10:00;5.40;;;3.65;;
20619;SDS011;10469;42.720;23.252;2023-04-03T06:12:27;5.38;;;3.97;;
20619;SDS011;10469;42.720;23.252;2023-04-03T06:14:54;8.23;;;3.67;;
20619;SDS011;10469;42.720;23.252;2023-04-03T06:17:21;11.02;;;5.20;;
20619;SDS011;10469;42.720;23.252;2023-04-03T06:19:47;10.80;;;5.40;;
20619;SDS011;10469;42.720;23.252;2023-04-03T06:22:13;15.43;;;5.05;;
20619;SDS011;10469;42.720;23.252;2023-04-03T06:24:39;15.88;;;5.85;;
20619;SDS011;10469;42.720;23.252;2023-04-03T06:27:05;15.68;;;6.85;;
20619;SDS011;10469;42.720;23.252;2023-04-03T06:29:31;20.92;;;6.47;;
20619;SDS011;10469;42.720;23.252;2023-04-03T06:31:57;14.48;;;7.10;;
20619;SDS011;10469;42.720;23.252;2023-04-03T06:34:23;19.63;;;6.30;;
20619;SDS011;10469;42.720;23.252;2023-04-03T06:36:49;15.23;;;6.55;;
20619;SDS011;10469;42.720;23.252;2023-04-03T06:39:16;20.63;;;7.65;;
20619;SDS011;10469;42.720;23.252;2023-04-03T06:41:46;15.20;;;6.75;;
20619;SDS011;10469;42.720;23.252;2023-04-03T06:44:12;11.45;;;6.70;;
20619;SDS011;10469;42.720;23.252;2023-04-03T06:46:40;15.05;;;6.88;;
20619;SDS011;10469;42.720;23.252;2023-04-03T06:49:10;14.57;;;7.70;;
20619;SDS011;10469;42.720;23.252;2023-04-03T06:51:36;18.70;;;7.38;;
20619;SDS011;10469;42.720;23.252;2023-04-03T06:54:02;17.40;;;8.52;;
20619;SDS011;10469;42.720;23.252;2023-04-03T06:56:29;14.82;;;7.40;;
20619;SDS011;10469;42.720;23.252;2023-04-03T06:58:55;27.42;;;15.85;;
20619;SDS011;10469;42.720;23.252;2023-04-03T07:01:27;16.50;;;7.45;;
20619;SDS011;10469;42.720;23.252;2023-04-03T07:03:55;19.60;;;7.23;;
20619;SDS011;10469;42.720;23.252;2023-04-03T07:06:21;17.50;;;7.05;;
20619;SDS011;10469;42.720;23.252;2023-04-03T07:08:47;10.75;;;6.03;;
20619;SDS011;10469;42.720;23.252;2023-04-03T07:11:14;11.38;;;6.32;;
20619;SDS011;10469;42.720;23.252;2023-04-03T07:13:40;8.45;;;5.18;;
20619;SDS011;10469;42.720;23.252;2023-04-03T07:16:06;10.38;;;5.75;;
20619;SDS011;10469;42.720;23.252;2023-04-03T07:18:33;10.68;;;5.22;;
20619;SDS011;10469;42.720;23.252;2023-04-03T07:20:59;15.63;;;5.60;;
20619;SDS011;10469;42.720;23.252;2023-04-03T07:23:26;14.52;;;5.00;;
20619;SDS011;10469;42.720;23.252;2023-04-03T07:25:52;6.28;;;4.57;;
20619;SDS011;10469;42.720;23.252;2023-04-03T07:28:18;6.10;;;4.95;;
20619;SDS011;10469;42.720;23.252;2023-04-03T07:30:46;14.55;;;6.70;;
20619;SDS011;10469;42.720;23.252;2023-04-03T07:33:17;9.30;;;5.25;;
20619;SDS011;10469;42.720;23.252;2023-04-03T07:35:44;9.40;;;4.72;;
20619;SDS011;10469;42.720;23.252;2023-04-03T07:38:10;10.40;;;5.22;;
20619;SDS011;10469;42.720;23.252;2023-04-03T07:40:37;8.07;;;4.32;;
20619;SDS011;10469;42.720;23.252;2023-04-03T07:43:05;9.48;;;4.70;;
20619;SDS011;10469;42.720;23.252;2023-04-03T07:45:31;8.07;;;4.55;;
20619;SDS011;10469;42.720;23.252;2023-04-03T07:48:00;13.25;;;4.57;;
20619;SDS011;10469;42.720;23.252;2023-04-03T07:50:27;12.70;;;5.32;;
20619;SDS011;10469;42.720;23.252;2023-04-03T07:52:53;6.50;;;4.10;;
20619;SDS011;10469;42.720;23.252;2023-04-03T07:55:21;6.15;;;3.97;;
20619;SDS011;10469;42.720;23.252;2023-04-03T07:57:47;12.18;;;5.07;;
20619;SDS011;10469;42.720;23.252;2023-04-03T08:00:15;16.67;;;4.40;;
20619;SDS011;10469;42.720;23.252;2023-04-03T08:02:45;8.70;;;5.18;;
20619;SDS011;10469;42.720;23.252;2023-04-03T08:05:20;8.00;;;4.78;;
20619;SDS011;10469;42.720;23.252;2023-04-03T08:07:54;13.48;;;4.43;;
20619;SDS011;10469;42.720;23.252;2023-04-03T08:10:19;7.43;;;4.40;;
20619;SDS011;10469;42.720;23.252;2023-04-03T08:12:46;6.13;;;4.60;;
20619;SDS011;10469;42.720;23.252;2023-04-03T08:15:12;8.00;;;5.07;;
20619;SDS011;10469;42.720;23.252;2023-04-03T08:17:38;6.38;;;4.60;;
20619;SDS011;10469;42.720;23.252;2023-04-03T08:20:05;8.15;;;4.75;;
20619;SDS011;10469;42.720;23.252;2023-04-03T08:22:32;10.07;;;4.68;;
20619;SDS011;10469;42.720;23.252;2023-04-03T08:24:59;10.45;;;5.65;;
20619;SDS011;10469;42.720;23.252;2023-04-03T08:27:25;10.20;;;6.47;;
20619;SDS011;10469;42.720;23.252;2023-04-03T08:29:52;12.50;;;6.38;;
20619;SDS011;10469;42.720;23.252;2023-04-03T08:32:17;11.38;;;5.93;;
20619;SDS011;10469;42.720;23.252;2023-04-03T08:34:44;8.77;;;5.90;;
20619;SDS011;10469;42.720;23.252;2023-04-03T08:37:11;9.35;;;6.13;;
20619;SDS011;10469;42.720;23.252;2023-04-03T08:39:37;15.77;;;6.53;;
20619;SDS011;10469;42.720;23.252;2023-04-03T08:42:05;10.88;;;6.30;;
20619;SDS011;10469;42.720;23.252;2023-04-03T08:45:01;13.32;;;6.15;;
20619;SDS011;10469;42.720;23.252;2023-04-03T08:50:52;10.77;;;7.18;;
20619;SDS011;10469;42.720;23.252;2023-04-03T08:53:23;16.50;;;8.10;;
20619;SDS011;10469;42.720;23.252;2023-04-03T08:55:53;11.50;;;7.10;;
20619;SDS011;10469;42.720;23.252;2023-04-03T08:58:21;10.85;;;7.20;;
20619;SDS011;10469;42.720;23.252;2023-04-03T09:00:51;12.07;;;6.82;;
20619;SDS011;10469;42.720;23.252;2023-04-03T09:03:21;12.05;;;6.15;;
20619;SDS011;10469;42.720;23.252;2023-04-03T09:05:49;14.95;;;7.50;;
20619;SDS011;10469;42.720;23.252;2023-04-03T09:21:47;13.20;;;7.70;;
20619;SDS011;10469;42.720;23.252;2023-04-03T09:24:13;18.52;;;7.63;;
20619;SDS011;10469;42.720;23.252;2023-04-03T09:26:45;12.85;;;7.38;;
20619;SDS011;10469;42.720;23.252;2023-04-03T09:29:17;18.58;;;8.45;;
20619;SDS011;10469;42.720;23.252;2023-04-03T09:31:46;18.73;;;8.27;;
20619;SDS011;10469;42.720;23.252;2023-04-03T09:36:50;18.40;;;10.32;;
20619;SDS011;10469;42.720;23.252;2023-04-03T09:39:22;17.17;;;10.15;;
20619;SDS011;10469;42.720;23.252;2023-04-03T09:41:56;17.88;;;9.40;;
20619;SDS011;10469;42.720;23.252;2023-04-03T09:44:26;22.17;;;10.55;;
20619;SDS011;10469;42.720;23.252;2023-04-03T09:47:16;10.38;;;7.00;;
20619;SDS011;10469;42.720;23.252;2023-04-03T09:49:50;27.35;;;8.57;;
20619;SDS011;10469;42.720;23.252;2023-04-03T09:52:27;17.33;;;8.27;;
20619;SDS011;10469;42.720;23.252;2023-04-03T09:54:54;20.42;;;9.30;;
20619;SDS011;10469;42.720;23.252;2023-04-03T09:57:38;13.25;;;8.00;;
20619;SDS011;10469;42.720;23.252;2023-04-03T10:00:04;17.65;;;8.60;;
20619;SDS011;10469;42.720;23.252;2023-04-03T10:02:38;18.08;;;8.60;;
20619;SDS011;10469;42.720;23.252;2023-04-03T10:08:36;20.38;;;9.23;;
20619;SDS011;10469;42.720;23.252;2023-04-03T10:11:15;22.85;;;9.00;;
20619;SDS011;10469;42.720;23.252;2023-04-03T10:13:54;20.67;;;9.48;;
20619;SDS011;10469;42.720;23.252;2023-04-03T10:43:33;11.48;;;6.30;;
20619;SDS011;10469;42.720;23.252;2023-04-03T11:12:04;4.72;;;3.60;;
20619;SDS011;10469;42.720;23.252;2023-04-03T11:14:35;8.93;;;3.47;;
20619;SDS011;10469;42.720;23.252;2023-04-03T11:17:11;5.43;;;3.50;;
20619;SDS011;10469;42.720;23.252;2023-04-03T11:22:25;8.15;;;3.55;;
20619;SDS011;10469;42.720;23.252;2023-04-03T11:27:40;6.65;;;4.13;;
20619;SDS011;10469;42.720;23.252;2023-04-03T11:30:23;7.90;;;3.85;;
20619;SDS011;10469;42.720;23.252;2023-04-03T11:36:01;4.22;;;3.13;;
20619;SDS011;10469;42.720;23.252;2023-04-03T11:38:36;3.67;;;2.55;;
20619;SDS011;10469;42.720;23.252;2023-04-03T11:41:08;6.32;;;3.42;;
20619;SDS011;10469;42.720;23.252;2023-04-03T11:43:58;6.38;;;3.47;;
20619;SDS011;10469;42.720;23.252;2023-04-03T12:22:06;6.97;;;3.83;;
20619;SDS011;10469;42.720;23.252;2023-04-03T12:24:36;6.00;;;3.97;;
20619;SDS011;10469;42.720;23.252;2023-04-03T12:38:03;4.18;;;3.00;;
20619;SDS011;10469;42.720;23.252;2023-04-03T12:53:58;5.57;;;3.97;;
20619;SDS011;10469;42.720;23.252;2023-04-03T12:56:46;3.15;;;2.78;;
20619;SDS011;10469;42.720;23.252;2023-04-03T12:59:22;3.40;;;2.80;;
20619;SDS011;10469;42.720;23.252;2023-04-03T13:01:54;4.32;;;2.90;;
20619;SDS011;10469;42.720;23.252;2023-04-03T13:04:26;7.53;;;2.72;;
20619;SDS011;10469;42.720;23.252;2023-04-03T13:06:53;3.60;;;3.25;;
20619;SDS011;10469;42.720;23.252;2023-04-03T13:09:22;7.85;;;3.47;;
20619;SDS011;10469;42.720;23.252;2023-04-03T13:12:13;6.20;;;4.00;;
20619;SDS011;10469;42.720;23.252;2023-04-03T13:14:40;9.70;;;4.22;;
20619;SDS011;10469;42.720;23.252;2023-04-03T13:17:16;5.03;;;3.30;;
20619;SDS011;10469;42.720;23.252;2023-04-03T13:19:43;6.95;;;4.50;;
20619;SDS011;10469;42.720;23.252;2023-04-03T13:22:19;8.73;;;4.43;;
20619;SDS011;10469;42.720;23.252;2023-04-03T13:24:53;7.95;;;4.38;;
20619;SDS011;10469;42.720;23.252;2023-04-03T13:27:20;6.35;;;4.28;;
20619;SDS011;10469;42.720;23.252;2023-04-03T13:29:51;6.65;;;4.70;;
20619;SDS011;10469;42.720;23.252;2023-04-03T13:32:23;7.78;;;5.03;;
20619;SDS011;10469;42.720;23.252;2023-04-03T13:34:51;8.40;;;5.30;;
20619;SDS011;10469;42.720;23.252;2023-04-03T13:37:25;8.38;;;4.95;;
20619;SDS011;10469;42.720;23.252;2023-04-03T13:39:58;6.03;;;4.38;;
20619;SDS011;10469;42.720;23.252;2023-04-03T13:42:26;10.75;;;4.97;;
20619;SDS011;10469;42.720;23.252;2023-04-03T13:56:09;5.38;;;4.00;;
20619;SDS011;10469;42.720;23.252;2023-04-03T13:58:54;7.82;;;4.90;;
20619;SDS011;10469;42.720;23.252;2023-04-03T14:01:22;7.45;;;5.18;;
20619;SDS011;10469;42.720;23.252;2023-04-03T14:03:56;7.60;;;5.07;;
20619;SDS011;10469;42.720;23.252;2023-04-03T14:06:24;12.73;;;5.22;;
20619;SDS011;10469;42.720;23.252;2023-04-03T14:08:50;9.55;;;5.32;;
20619;SDS011;10469;42.720;23.252;2023-04-03T14:11:21;11.38;;;5.88;;
20619;SDS011;10469;42.720;23.252;2023-04-03T14:14:02;8.50;;;5.65;;
20619;SDS011;10469;42.720;23.252;2023-04-03T14:16:38;9.10;;;6.72;;
20619;SDS011;10469;42.720;23.252;2023-04-03T14:19:06;7.90;;;6.53;;
20619;SDS011;10469;42.720;23.252;2023-04-03T14:21:40;10.35;;;6.10;;
20619;SDS011;10469;42.720;23.252;2023-04-03T14:24:06;9.77;;;6.50;;
20619;SDS011;10469;42.720;23.252;2023-04-03T14:26:31;7.95;;;5.55;;
20619;SDS011;10469;42.720;23.252;2023-04-03T14:28:57;9.32;;;6.30;;
20619;SDS011;10469;42.720;23.252;2023-04-03T14:31:23;9.48;;;6.40;;
20619;SDS011;10469;42.720;23.252;2023-04-03T14:33:49;9.40;;;6.80;;
20619;SDS011;10469;42.720;23.252;2023-04-03T14:36:16;11.30;;;6.50;;
20619;SDS011;10469;42.720;23.252;2023-04-03T14:38:45;9.55;;;6.05;;
20619;SDS011;10469;42.720;23.252;2023-04-03T14:41:12;6.97;;;4.93;;
20619;SDS011;10469;42.720;23.252;2023-04-03T14:43:39;9.15;;;6.00;;
20619;SDS011;10469;42.720;23.252;2023-04-03T14:46:10;10.35;;;5.15;;
20619;SDS011;10469;42.720;23.252;2023-04-03T14:48:46;5.63;;;4.60;;
20619;SDS011;10469;42.720;23.252;2023-04-03T14:51:13;6.53;;;5.00;;
20619;SDS011;10469;42.720;23.252;2023-04-03T14:53:40;5.75;;;4.57;;
20619;SDS011;10469;42.720;23.252;2023-04-03T14:56:21;6.70;;;5.32;;
20619;SDS011;10469;42.720;23.252;2023-04-03T14:58:49;8.18;;;4.05;;
20619;SDS011;10469;42.720;23.252;2023-04-03T15:01:20;6.97;;;4.88;;
20619;SDS011;10469;42.720;23.252;2023-04-03T15:03:46;5.80;;;5.00;;
20619;SDS011;10469;42.720;23.252;2023-04-03T15:06:12;7.07;;;5.47;;
20619;SDS011;10469;42.720;23.252;2023-04-03T15:08:39;6.40;;;4.80;;
20619;SDS011;10469;42.720;23.252;2023-04-03T15:11:07;5.60;;;4.78;;
20619;SDS011;10469;42.720;23.252;2023-04-03T15:13:35;7.75;;;4.63;;
20619;SDS011;10469;42.720;23.252;2023-04-03T15:16:02;6.45;;;4.63;;
20619;SDS011;10469;42.720;23.252;2023-04-03T15:18:29;4.38;;;3.97;;
20619;SDS011;10469;42.720;23.252;2023-04-03T15:21:01;4.20;;;3.80;;
20619;SDS011;10469;42.720;23.252;2023-04-03T15:23:27;3.53;;;3.20;;
20619;SDS011;10469;42.720;23.252;2023-04-03T15:26:00;3.95;;;3.55;;
20619;SDS011;10469;42.720;23.252;2023-04-03T15:28:38;5.00;;;4.22;;
20619;SDS011;10469;42.720;23.252;2023-04-03T15:31:05;5.57;;;4.45;;
20619;SDS011;10469;42.720;23.252;2023-04-03T15:33:32;6.60;;;4.13;;
20619;SDS011;10469;42.720;23.252;2023-04-03T15:36:03;5.57;;;4.70;;
20619;SDS011;10469;42.720;23.252;2023-04-03T15:38:30;6.78;;;4.80;;
20619;SDS011;10469;42.720;23.252;2023-04-03T15:40:56;5.55;;;4.20;;
20619;SDS011;10469;42.720;23.252;2023-04-03T15:43:21;5.32;;;4.20;;
20619;SDS011;10469;42.720;23.252;2023-04-03T15:45:49;6.88;;;4.05;;
20619;SDS011;10469;42.720;23.252;2023-04-03T15:48:16;4.38;;;3.50;;
20619;SDS011;10469;42.720;23.252;2023-04-03T15:50:42;5.03;;;4.10;;
20619;SDS011;10469;42.720;23.252;2023-04-03T15:53:08;7.85;;;5.18;;
20619;SDS011;10469;42.720;23.252;2023-04-03T15:55:35;9.43;;;5.88;;
20619;SDS011;10469;42.720;23.252;2023-04-03T15:58:02;10.23;;;6.07;;
20619;SDS011;10469;42.720;23.252;2023-04-03T16:00:29;7.68;;;5.25;;
20619;SDS011;10469;42.720;23.252;2023-04-03T16:03:15;9.32;;;6.10;;
20619;SDS011;10469;42.720;23.252;2023-04-03T16:05:44;8.45;;;5.90;;
20619;SDS011;10469;42.720;23.252;2023-04-03T16:08:10;7.93;;;5.45;;
20619;SDS011;10469;42.720;23.252;2023-04-03T16:10:37;6.65;;;5.05;;
20619;SDS011;10469;42.720;23.252;2023-04-03T16:13:04;9.63;;;5.22;;
20619;SDS011;10469;42.720;23.252;2023-04-03T16:15:32;16.88;;;9.98;;
20619;SDS011;10469;42.720;23.252;2023-04-03T16:20:30;10.65;;;6.18;;
20619;SDS011;10469;42.720;23.252;2023-04-03T16:22:57;8.63;;;6.32;;
20619;SDS011;10469;42.720;23.252;2023-04-03T16:25:25;8.07;;;5.43;;
20619;SDS011;10469;42.720;23.252;2023-04-03T16:27:52;8.50;;;5.50;;
20619;SDS011;10469;42.720;23.252;2023-04-03T16:30:21;6.57;;;4.40;;
20619;SDS011;10469;42.720;23.252;2023-04-03T16:32:48;5.80;;;4.68;;
20619;SDS011;10469;42.720;23.252;2023-04-03T16:35:14;8.85;;;4.43;;
20619;SDS011;10469;42.720;23.252;2023-04-03T16:37:40;6.78;;;4.88;;
20619;SDS011;10469;42.720;23.252;2023-04-03T16:40:06;9.02;;;5.72;;
20619;SDS011;10469;42.720;23.252;2023-04-03T16:42:32;8.75;;;5.38;;
20619;SDS011;10469;42.720;23.252;2023-04-03T16:44:58;8.27;;;5.82;;
20619;SDS011;10469;42.720;23.252;2023-04-03T16:47:29;8.57;;;5.65;;
20619;SDS011;10469;42.720;23.252;2023-04-03T16:49:56;10.90;;;6.07;;
20619;SDS011;10469;42.720;23.252;2023-04-03T16:52:22;10.13;;;6.57;;
20619;SDS011;10469;42.720;23.252;2023-04-03T16:54:54;7.83;;;6.20;;
20619;SDS011;10469;42.720;23.252;2023-04-03T16:57:21;7.22;;;6.03;;
20619;SDS011;10469;42.720;23.252;2023-04-03T16:59:49;9.80;;;5.97;;
20619;SDS011;10469;42.720;23.252;2023-04-03T17:02:16;9.30;;;7.05;;
20619;SDS011;10469;42.720;23.252;2023-04-03T17:04:42;8.93;;;6.68;;
20619;SDS011;10469;42.720;23.252;2023-04-03T17:07:08;10.07;;;5.55;;
20619;SDS011;10469;42.720;23.252;2023-04-03T17:09:33;8.52;;;6.13;;
20619;SDS011;10469;42.720;23.252;2023-04-03T17:12:00;8.70;;;6.43;;
20619;SDS011;10469;42.720;23.252;2023-04-03T17:14:25;7.43;;;5.97;;
20619;SDS011;10469;42.720;23.252;2023-04-03T17:16:54;8.18;;;6.20;;
20619;SDS011;10469;42.720;23.252;2023-04-03T17:19:21;8.68;;;6.75;;